sensor_id;sensor_type;location;lat;lon;timestamp;P1;durP1;ratioP1;P2;durP2;ratioP2
60844;SDS011;47984;51.250;6.712;2022-07-29T00:01:03;1.25;;;0.90;;
60844;SDS011;47984;51.250;6.712;2022-07-29T00:03:30;4.60;;;0.80;;
60844;SDS011;47984;51.250;6.712;2022-07-29T00:05:57;4.35;;;0.68;;
60844;SDS011;47984;51.250;6.712;2022-07-29T00:08:26;0.70;;;0.60;;
60844;SDS011;47984;51.250;6.712;2022-07-29T00:10:53;2.67;;;0.75;;
60844;SDS011;47984;51.250;6.712;2022-07-29T00:13:20;0.80;;;0.55;;
60844;SDS011;47984;51.250;6.712;2022-07-29T00:15:58;2.67;;;0.70;;
60844;SDS011;47984;51.250;6.712;2022-07-29T00:18:30;3.97;;;0.90;;
60844;SDS011;47984;51.250;6.712;2022-07-29T00:20:58;3.10;;;1.20;;
60844;SDS011;47984;51.250;6.712;2022-07-29T00:23:25;3.38;;;1.10;;
60844;SDS011;47984;51.250;6.712;2022-07-29T00:25:52;0.63;;;0.60;;
60844;SDS011;47984;51.250;6.712;2022-07-29T00:28:19;2.92;;;0.90;;
60844;SDS011;47984;51.250;6.712;2022-07-29T00:30:46;2.65;;;0.80;;
60844;SDS011;47984;51.250;6.712;2022-07-29T00:33:13;2.63;;;0.77;;
60844;SDS011;47984;51.250;6.712;2022-07-29T00:35:40;1.60;;;0.80;;
60844;SDS011;47984;51.250;6.712;2022-07-29T00:38:11;1.60;;;0.60;;
60844;SDS011;47984;51.250;6.712;2022-07-29T00:40:40;2.92;;;1.30;;
60844;SDS011;47984;51.250;6.712;2022-07-29T00:43:09;2.63;;;0.63;;
60844;SDS011;47984;51.250;6.712;2022-07-29T00:45:39;2.95;;;0.68;;
60844;SDS011;47984;51.250;6.712;2022-07-29T00:48:09;2.85;;;0.85;;
60844;SDS011;47984;51.250;6.712;2022-07-29T00:50:37;3.30;;;0.80;;
60844;SDS011;47984;51.250;6.712;2022-07-29T00:53:07;1.95;;;1.00;;
60844;SDS011;47984;51.250;6.712;2022-07-29T00:55:38;2.58;;;0.90;;
60844;SDS011;47984;51.250;6.712;2022-07-29T00:58:05;1.73;;;0.60;;
60844;SDS011;47984;51.250;6.712;2022-07-29T01:00:33;2.75;;;0.80;;
60844;SDS011;47984;51.250;6.712;2022-07-29T01:03:00;1.75;;;0.90;;
60844;SDS011;47984;51.250;6.712;2022-07-29T01:05:29;1.40;;;0.85;;
60844;SDS011;47984;51.250;6.712;2022-07-29T01:08:17;1.52;;;0.80;;
60844;SDS011;47984;51.250;6.712;2022-07-29T01:10:46;0.98;;;0.60;;
60844;SDS011;47984;51.250;6.712;2022-07-29T01:13:15;1.33;;;0.63;;
60844;SDS011;47984;51.250;6.712;2022-07-29T01:15:45;2.05;;;1.08;;
60844;SDS011;47984;51.250;6.712;2022-07-29T01:18:32;1.30;;;0.63;;
60844;SDS011;47984;51.250;6.712;2022-07-29T01:30:26;2.40;;;0.77;;
60844;SDS011;47984;51.250;6.712;2022-07-29T01:33:07;2.63;;;1.00;;
60844;SDS011;47984;51.250;6.712;2022-07-29T01:36:05;2.53;;;0.90;;
60844;SDS011;47984;51.250;6.712;2022-07-29T01:38:44;3.28;;;1.20;;
60844;SDS011;47984;51.250;6.712;2022-07-29T01:41:24;2.20;;;0.80;;
60844;SDS011;47984;51.250;6.712;2022-07-29T01:43:57;2.23;;;0.83;;
60844;SDS011;47984;51.250;6.712;2022-07-29T01:46:36;2.10;;;0.90;;
60844;SDS011;47984;51.250;6.712;2022-07-29T01:49:11;5.15;;;0.85;;
60844;SDS011;47984;51.250;6.712;2022-07-29T01:51:47;2.22;;;1.10;;
60844;SDS011;47984;51.250;6.712;2022-07-29T01:57:13;3.40;;;1.05;;
60844;SDS011;47984;51.250;6.712;2022-07-29T01:59:46;2.20;;;1.10;;
60844;SDS011;47984;51.250;6.712;2022-07-29T02:02:16;2.42;;;0.90;;
60844;SDS011;47984;51.250;6.712;2022-07-29T02:04:47;3.65;;;1.45;;
60844;SDS011;47984;51.250;6.712;2022-07-29T02:07:18;2.30;;;0.93;;
60844;SDS011;47984;51.250;6.712;2022-07-29T02:09:49;3.10;;;0.80;;
60844;SDS011;47984;51.250;6.712;2022-07-29T02:12:19;1.63;;;0.85;;
60844;SDS011;47984;51.250;6.712;2022-07-29T02:14:51;2.15;;;1.15;;
60844;SDS011;47984;51.250;6.712;2022-07-29T02:17:27;2.67;;;0.93;;
60844;SDS011;47984;51.250;6.712;2022-07-29T02:20:15;1.92;;;0.70;;
60844;SDS011;47984;51.250;6.712;2022-07-29T02:22:43;2.85;;;1.08;;
60844;SDS011;47984;51.250;6.712;2022-07-29T02:25:13;2.78;;;1.42;;
60844;SDS011;47984;51.250;6.712;2022-07-29T02:27:42;2.50;;;1.65;;
60844;SDS011;47984;51.250;6.712;2022-07-29T02:30:11;1.60;;;1.30;;
60844;SDS011;47984;51.250;6.712;2022-07-29T02:32:40;2.40;;;1.45;;
60844;SDS011;47984;51.250;6.712;2022-07-29T02:37:45;2.03;;;1.13;;
60844;SDS011;47984;51.250;6.712;2022-07-29T02:40:37;2.63;;;1.25;;
60844;SDS011;47984;51.250;6.712;2022-07-29T02:43:08;2.67;;;1.00;;
60844;SDS011;47984;51.250;6.712;2022-07-29T02:45:37;3.00;;;1.60;;
60844;SDS011;47984;51.250;6.712;2022-07-29T02:48:06;3.75;;;1.13;;
60844;SDS011;47984;51.250;6.712;2022-07-29T02:50:44;3.80;;;1.17;;
60844;SDS011;47984;51.250;6.712;2022-07-29T02:53:22;0.90;;;0.73;;
60844;SDS011;47984;51.250;6.712;2022-07-29T02:55:59;2.70;;;1.20;;
60844;SDS011;47984;51.250;6.712;2022-07-29T02:58:38;2.22;;;1.20;;
60844;SDS011;47984;51.250;6.712;2022-07-29T03:01:20;1.92;;;0.73;;
60844;SDS011;47984;51.250;6.712;2022-07-29T03:03:50;2.30;;;0.68;;
60844;SDS011;47984;51.250;6.712;2022-07-29T03:06:20;2.08;;;0.80;;
60844;SDS011;47984;51.250;6.712;2022-07-29T03:11:37;1.52;;;0.75;;
60844;SDS011;47984;51.250;6.712;2022-07-29T03:14:18;1.00;;;0.70;;
60844;SDS011;47984;51.250;6.712;2022-07-29T03:16:47;1.48;;;0.70;;
60844;SDS011;47984;51.250;6.712;2022-07-29T03:19:17;1.35;;;0.98;;
60844;SDS011;47984;51.250;6.712;2022-07-29T03:21:46;2.42;;;0.77;;
60844;SDS011;47984;51.250;6.712;2022-07-29T03:24:30;1.30;;;0.90;;
60844;SDS011;47984;51.250;6.712;2022-07-29T03:27:00;3.17;;;0.80;;
60844;SDS011;47984;51.250;6.712;2022-07-29T03:29:29;1.13;;;0.70;;
60844;SDS011;47984;51.250;6.712;2022-07-29T03:31:59;1.17;;;0.63;;
60844;SDS011;47984;51.250;6.712;2022-07-29T03:34:33;1.83;;;0.60;;
60844;SDS011;47984;51.250;6.712;2022-07-29T03:37:00;0.90;;;0.60;;
60844;SDS011;47984;51.250;6.712;2022-07-29T03:39:29;1.67;;;0.50;;
60844;SDS011;47984;51.250;6.712;2022-07-29T03:42:04;0.63;;;0.50;;
60844;SDS011;47984;51.250;6.712;2022-07-29T03:44:36;3.40;;;0.80;;
60844;SDS011;47984;51.250;6.712;2022-07-29T03:49:39;1.63;;;0.70;;
60844;SDS011;47984;51.250;6.712;2022-07-29T03:52:08;2.17;;;1.20;;
60844;SDS011;47984;51.250;6.712;2022-07-29T03:54:36;1.48;;;0.60;;
60844;SDS011;47984;51.250;6.712;2022-07-29T03:57:04;2.70;;;0.68;;
60844;SDS011;47984;51.250;6.712;2022-07-29T03:59:34;4.55;;;1.08;;
60844;SDS011;47984;51.250;6.712;2022-07-29T04:02:03;1.98;;;0.80;;
60844;SDS011;47984;51.250;6.712;2022-07-29T04:04:34;0.73;;;0.57;;
60844;SDS011;47984;51.250;6.712;2022-07-29T04:07:02;1.33;;;0.85;;
60844;SDS011;47984;51.250;6.712;2022-07-29T04:09:33;1.95;;;0.93;;
60844;SDS011;47984;51.250;6.712;2022-07-29T04:12:00;3.03;;;1.00;;
60844;SDS011;47984;51.250;6.712;2022-07-29T04:14:32;1.50;;;1.00;;
60844;SDS011;47984;51.250;6.712;2022-07-29T04:17:01;2.65;;;0.93;;
60844;SDS011;47984;51.250;6.712;2022-07-29T04:19:31;1.73;;;1.10;;
60844;SDS011;47984;51.250;6.712;2022-07-29T04:21:59;6.45;;;1.42;;
60844;SDS011;47984;51.250;6.712;2022-07-29T04:24:27;2.80;;;1.30;;
60844;SDS011;47984;51.250;6.712;2022-07-29T04:26:55;3.50;;;1.35;;
60844;SDS011;47984;51.250;6.712;2022-07-29T04:29:22;5.10;;;1.15;;
60844;SDS011;47984;51.250;6.712;2022-07-29T04:31:49;1.20;;;0.80;;
60844;SDS011;47984;51.250;6.712;2022-07-29T04:34:16;1.75;;;1.45;;
60844;SDS011;47984;51.250;6.712;2022-07-29T04:36:45;1.73;;;1.13;;
60844;SDS011;47984;51.250;6.712;2022-07-29T04:39:12;2.22;;;1.30;;
60844;SDS011;47984;51.250;6.712;2022-07-29T04:41:45;1.67;;;1.38;;
60844;SDS011;47984;51.250;6.712;2022-07-29T04:44:13;3.35;;;1.90;;
60844;SDS011;47984;51.250;6.712;2022-07-29T04:46:42;3.28;;;1.80;;
60844;SDS011;47984;51.250;6.712;2022-07-29T04:49:09;4.05;;;2.17;;
60844;SDS011;47984;51.250;6.712;2022-07-29T04:51:37;2.97;;;1.60;;
60844;SDS011;47984;51.250;6.712;2022-07-29T04:54:04;3.30;;;1.70;;
60844;SDS011;47984;51.250;6.712;2022-07-29T04:56:32;2.53;;;1.10;;
60844;SDS011;47984;51.250;6.712;2022-07-29T04:58:59;1.17;;;1.02;;
60844;SDS011;47984;51.250;6.712;2022-07-29T05:01:26;1.55;;;0.73;;
60844;SDS011;47984;51.250;6.712;2022-07-29T05:03:54;1.95;;;0.90;;
60844;SDS011;47984;51.250;6.712;2022-07-29T05:06:25;2.90;;;0.95;;
60844;SDS011;47984;51.250;6.712;2022-07-29T05:08:53;3.70;;;1.08;;
60844;SDS011;47984;51.250;6.712;2022-07-29T05:11:25;1.40;;;0.88;;
60844;SDS011;47984;51.250;6.712;2022-07-29T05:13:55;2.63;;;1.00;;
60844;SDS011;47984;51.250;6.712;2022-07-29T05:16:23;1.83;;;0.63;;
60844;SDS011;47984;51.250;6.712;2022-07-29T05:18:53;1.98;;;1.00;;
60844;SDS011;47984;51.250;6.712;2022-07-29T05:21:20;3.35;;;1.15;;
60844;SDS011;47984;51.250;6.712;2022-07-29T05:23:48;2.25;;;1.30;;
60844;SDS011;47984;51.250;6.712;2022-07-29T05:26:15;3.95;;;1.17;;
60844;SDS011;47984;51.250;6.712;2022-07-29T05:28:42;2.78;;;1.20;;
60844;SDS011;47984;51.250;6.712;2022-07-29T05:31:09;4.95;;;0.98;;
60844;SDS011;47984;51.250;6.712;2022-07-29T05:33:37;2.53;;;1.05;;
60844;SDS011;47984;51.250;6.712;2022-07-29T05:36:04;1.80;;;1.20;;
60844;SDS011;47984;51.250;6.712;2022-07-29T05:38:34;2.92;;;1.45;;
60844;SDS011;47984;51.250;6.712;2022-07-29T05:41:03;0.90;;;0.90;;
60844;SDS011;47984;51.250;6.712;2022-07-29T05:43:31;5.43;;;1.05;;
60844;SDS011;47984;51.250;6.712;2022-07-29T05:45:59;3.08;;;1.40;;
60844;SDS011;47984;51.250;6.712;2022-07-29T05:48:26;1.20;;;1.00;;
60844;SDS011;47984;51.250;6.712;2022-07-29T05:50:54;1.88;;;1.05;;
60844;SDS011;47984;51.250;6.712;2022-07-29T05:53:21;6.13;;;1.40;;
60844;SDS011;47984;51.250;6.712;2022-07-29T05:55:49;2.95;;;1.20;;
60844;SDS011;47984;51.250;6.712;2022-07-29T05:58:18;3.35;;;1.33;;
60844;SDS011;47984;51.250;6.712;2022-07-29T06:00:45;2.47;;;1.20;;
60844;SDS011;47984;51.250;6.712;2022-07-29T06:03:13;4.10;;;1.42;;
60844;SDS011;47984;51.250;6.712;2022-07-29T06:05:40;1.95;;;1.50;;
60844;SDS011;47984;51.250;6.712;2022-07-29T06:08:07;1.60;;;1.30;;
60844;SDS011;47984;51.250;6.712;2022-07-29T06:10:35;2.33;;;1.10;;
60844;SDS011;47984;51.250;6.712;2022-07-29T06:13:02;1.75;;;1.10;;
60844;SDS011;47984;51.250;6.712;2022-07-29T06:15:30;1.50;;;1.20;;
60844;SDS011;47984;51.250;6.712;2022-07-29T06:17:57;1.55;;;1.23;;
60844;SDS011;47984;51.250;6.712;2022-07-29T06:20:30;2.28;;;1.63;;
60844;SDS011;47984;51.250;6.712;2022-07-29T06:22:58;2.17;;;1.23;;
60844;SDS011;47984;51.250;6.712;2022-07-29T06:25:26;2.03;;;1.60;;
60844;SDS011;47984;51.250;6.712;2022-07-29T06:27:58;2.42;;;0.93;;
60844;SDS011;47984;51.250;6.712;2022-07-29T06:30:25;1.63;;;1.33;;
60844;SDS011;47984;51.250;6.712;2022-07-29T06:32:53;1.77;;;1.20;;
60844;SDS011;47984;51.250;6.712;2022-07-29T06:35:21;2.70;;;1.23;;
60844;SDS011;47984;51.250;6.712;2022-07-29T06:38:08;1.90;;;1.30;;
60844;SDS011;47984;51.250;6.712;2022-07-29T06:40:56;0.80;;;0.80;;
60844;SDS011;47984;51.250;6.712;2022-07-29T06:43:33;2.85;;;1.40;;
60844;SDS011;47984;51.250;6.712;2022-07-29T06:46:17;2.45;;;1.42;;
60844;SDS011;47984;51.250;6.712;2022-07-29T06:48:46;3.28;;;1.30;;
60844;SDS011;47984;51.250;6.712;2022-07-29T06:51:14;3.92;;;1.30;;
60844;SDS011;47984;51.250;6.712;2022-07-29T06:53:48;4.28;;;1.73;;
60844;SDS011;47984;51.250;6.712;2022-07-29T06:56:28;1.83;;;1.15;;
60844;SDS011;47984;51.250;6.712;2022-07-29T06:59:05;2.50;;;1.58;;
60844;SDS011;47984;51.250;6.712;2022-07-29T07:01:39;2.05;;;1.35;;
60844;SDS011;47984;51.250;6.712;2022-07-29T07:04:09;2.58;;;1.40;;
60844;SDS011;47984;51.250;6.712;2022-07-29T07:06:38;2.72;;;1.50;;
60844;SDS011;47984;51.250;6.712;2022-07-29T07:09:06;3.83;;;1.15;;
60844;SDS011;47984;51.250;6.712;2022-07-29T07:11:33;1.67;;;1.48;;
60844;SDS011;47984;51.250;6.712;2022-07-29T07:14:00;2.03;;;1.20;;
60844;SDS011;47984;51.250;6.712;2022-07-29T07:16:30;1.55;;;1.10;;
60844;SDS011;47984;51.250;6.712;2022-07-29T07:18:58;4.85;;;1.50;;
60844;SDS011;47984;51.250;6.712;2022-07-29T07:21:26;1.58;;;1.00;;
60844;SDS011;47984;51.250;6.712;2022-07-29T07:23:56;1.38;;;1.15;;
60844;SDS011;47984;51.250;6.712;2022-07-29T07:26:23;4.68;;;1.08;;
60844;SDS011;47984;51.250;6.712;2022-07-29T07:28:51;2.03;;;1.20;;
60844;SDS011;47984;51.250;6.712;2022-07-29T07:31:18;2.25;;;1.10;;
60844;SDS011;47984;51.250;6.712;2022-07-29T07:33:46;2.97;;;1.10;;
60844;SDS011;47984;51.250;6.712;2022-07-29T07:36:13;4.15;;;1.30;;
60844;SDS011;47984;51.250;6.712;2022-07-29T07:38:41;2.90;;;1.50;;
60844;SDS011;47984;51.250;6.712;2022-07-29T07:41:08;3.17;;;1.17;;
60844;SDS011;47984;51.250;6.712;2022-07-29T07:43:35;1.15;;;1.05;;
60844;SDS011;47984;51.250;6.712;2022-07-29T07:46:02;2.25;;;1.00;;
60844;SDS011;47984;51.250;6.712;2022-07-29T07:48:30;2.05;;;1.45;;
60844;SDS011;47984;51.250;6.712;2022-07-29T07:50:57;1.48;;;0.90;;
60844;SDS011;47984;51.250;6.712;2022-07-29T07:53:24;1.42;;;1.20;;
60844;SDS011;47984;51.250;6.712;2022-07-29T07:55:51;4.22;;;1.65;;
60844;SDS011;47984;51.250;6.712;2022-07-29T07:58:37;2.70;;;1.50;;
60844;SDS011;47984;51.250;6.712;2022-07-29T08:01:05;1.83;;;1.13;;
60844;SDS011;47984;51.250;6.712;2022-07-29T08:03:32;1.42;;;1.33;;
60844;SDS011;47984;51.250;6.712;2022-07-29T08:06:00;2.53;;;1.25;;
60844;SDS011;47984;51.250;6.712;2022-07-29T08:08:29;3.15;;;1.42;;
60844;SDS011;47984;51.250;6.712;2022-07-29T08:10:56;1.23;;;1.13;;
60844;SDS011;47984;51.250;6.712;2022-07-29T08:13:24;2.28;;;1.52;;
60844;SDS011;47984;51.250;6.712;2022-07-29T08:15:54;4.93;;;1.67;;
60844;SDS011;47984;51.250;6.712;2022-07-29T08:18:38;3.75;;;1.80;;
60844;SDS011;47984;51.250;6.712;2022-07-29T08:21:07;3.70;;;1.80;;
60844;SDS011;47984;51.250;6.712;2022-07-29T08:23:34;7.40;;;1.95;;
60844;SDS011;47984;51.250;6.712;2022-07-29T08:26:14;1.88;;;1.42;;
60844;SDS011;47984;51.250;6.712;2022-07-29T08:28:42;3.78;;;2.03;;
60844;SDS011;47984;51.250;6.712;2022-07-29T08:31:12;3.35;;;1.52;;
60844;SDS011;47984;51.250;6.712;2022-07-29T08:33:40;1.75;;;1.35;;
60844;SDS011;47984;51.250;6.712;2022-07-29T08:36:08;5.68;;;2.25;;
60844;SDS011;47984;51.250;6.712;2022-07-29T08:38:36;1.60;;;1.00;;
60844;SDS011;47984;51.250;6.712;2022-07-29T08:41:03;3.13;;;1.60;;
60844;SDS011;47984;51.250;6.712;2022-07-29T08:43:30;3.00;;;1.25;;
60844;SDS011;47984;51.250;6.712;2022-07-29T08:45:58;4.68;;;1.80;;
60844;SDS011;47984;51.250;6.712;2022-07-29T08:48:26;2.38;;;1.25;;
60844;SDS011;47984;51.250;6.712;2022-07-29T08:50:57;3.92;;;1.73;;
60844;SDS011;47984;51.250;6.712;2022-07-29T08:53:28;3.08;;;1.35;;
60844;SDS011;47984;51.250;6.712;2022-07-29T08:55:56;1.98;;;1.52;;
60844;SDS011;47984;51.250;6.712;2022-07-29T08:58:25;2.58;;;1.48;;
60844;SDS011;47984;51.250;6.712;2022-07-29T09:01:02;2.63;;;2.15;;
60844;SDS011;47984;51.250;6.712;2022-07-29T09:03:33;2.88;;;1.55;;
60844;SDS011;47984;51.250;6.712;2022-07-29T09:06:03;2.65;;;1.52;;
60844;SDS011;47984;51.250;6.712;2022-07-29T09:08:31;3.78;;;1.77;;
60844;SDS011;47984;51.250;6.712;2022-07-29T09:11:02;1.98;;;1.52;;
60844;SDS011;47984;51.250;6.712;2022-07-29T09:13:30;3.78;;;1.50;;
60844;SDS011;47984;51.250;6.712;2022-07-29T09:15:58;2.08;;;1.50;;
60844;SDS011;47984;51.250;6.712;2022-07-29T09:18:42;3.30;;;1.70;;
60844;SDS011;47984;51.250;6.712;2022-07-29T09:21:13;3.67;;;1.58;;
60844;SDS011;47984;51.250;6.712;2022-07-29T09:24:04;1.83;;;1.40;;
60844;SDS011;47984;51.250;6.712;2022-07-29T09:26:38;2.92;;;1.50;;
60844;SDS011;47984;51.250;6.712;2022-07-29T09:29:18;3.08;;;1.35;;
60844;SDS011;47984;51.250;6.712;2022-07-29T09:31:49;3.05;;;1.85;;
60844;SDS011;47984;51.250;6.712;2022-07-29T09:34:26;2.53;;;1.70;;
60844;SDS011;47984;51.250;6.712;2022-07-29T09:36:57;2.22;;;1.13;;
60844;SDS011;47984;51.250;6.712;2022-07-29T09:42:01;2.85;;;1.48;;
60844;SDS011;47984;51.250;6.712;2022-07-29T09:44:45;2.80;;;1.95;;
60844;SDS011;47984;51.250;6.712;2022-07-29T09:47:17;3.45;;;1.65;;
60844;SDS011;47984;51.250;6.712;2022-07-29T09:49:55;2.95;;;1.90;;
60844;SDS011;47984;51.250;6.712;2022-07-29T09:52:26;2.70;;;1.35;;
60844;SDS011;47984;51.250;6.712;2022-07-29T09:55:09;5.38;;;1.92;;
60844;SDS011;47984;51.250;6.712;2022-07-29T09:57:44;5.22;;;1.50;;
60844;SDS011;47984;51.250;6.712;2022-07-29T10:00:14;1.50;;;1.13;;
60844;SDS011;47984;51.250;6.712;2022-07-29T10:02:46;4.03;;;1.35;;
60844;SDS011;47984;51.250;6.712;2022-07-29T10:05:19;2.45;;;1.42;;
60844;SDS011;47984;51.250;6.712;2022-07-29T10:07:55;4.35;;;1.48;;
60844;SDS011;47984;51.250;6.712;2022-07-29T10:10:25;2.40;;;1.80;;
60844;SDS011;47984;51.250;6.712;2022-07-29T10:12:57;4.85;;;1.88;;
60844;SDS011;47984;51.250;6.712;2022-07-29T10:15:37;1.38;;;1.27;;
60844;SDS011;47984;51.250;6.712;2022-07-29T10:18:10;1.90;;;1.30;;
60844;SDS011;47984;51.250;6.712;2022-07-29T10:20:39;4.72;;;1.92;;
60844;SDS011;47984;51.250;6.712;2022-07-29T10:23:08;3.25;;;1.63;;
60844;SDS011;47984;51.250;6.712;2022-07-29T10:25:36;2.50;;;1.73;;
60844;SDS011;47984;51.250;6.712;2022-07-29T10:28:05;4.38;;;1.65;;
60844;SDS011;47984;51.250;6.712;2022-07-29T10:30:32;3.72;;;2.08;;
60844;SDS011;47984;51.250;6.712;2022-07-29T10:33:17;4.35;;;1.67;;
60844;SDS011;47984;51.250;6.712;2022-07-29T10:42:25;2.20;;;1.40;;
60844;SDS011;47984;51.250;6.712;2022-07-29T10:44:59;1.55;;;1.17;;
60844;SDS011;47984;51.250;6.712;2022-07-29T10:47:30;3.45;;;1.45;;
60844;SDS011;47984;51.250;6.712;2022-07-29T10:50:04;5.55;;;1.33;;
60844;SDS011;47984;51.250;6.712;2022-07-29T10:55:32;1.58;;;1.30;;
60844;SDS011;47984;51.250;6.712;2022-07-29T10:58:13;1.73;;;1.35;;
60844;SDS011;47984;51.250;6.712;2022-07-29T11:00:47;1.63;;;1.52;;
60844;SDS011;47984;51.250;6.712;2022-07-29T11:06:19;4.03;;;1.88;;
60844;SDS011;47984;51.250;6.712;2022-07-29T11:09:16;1.63;;;1.30;;
60844;SDS011;47984;51.250;6.712;2022-07-29T11:15:05;3.22;;;1.60;;
60844;SDS011;47984;51.250;6.712;2022-07-29T11:18:17;3.65;;;2.45;;
60844;SDS011;47984;51.250;6.712;2022-07-29T11:20:43;6.55;;;2.83;;
60844;SDS011;47984;51.250;6.712;2022-07-29T11:28:53;4.65;;;2.60;;
60844;SDS011;47984;51.250;6.712;2022-07-29T11:31:37;3.58;;;2.22;;
60844;SDS011;47984;51.250;6.712;2022-07-29T11:39:38;5.70;;;2.38;;
60844;SDS011;47984;51.250;6.712;2022-07-29T11:45:44;5.15;;;2.70;;
60844;SDS011;47984;51.250;6.712;2022-07-29T11:48:14;4.45;;;2.72;;
60844;SDS011;47984;51.250;6.712;2022-07-29T11:50:58;4.63;;;2.40;;
60844;SDS011;47984;51.250;6.712;2022-07-29T11:53:26;3.97;;;2.95;;
60844;SDS011;47984;51.250;6.712;2022-07-29T11:55:58;3.15;;;2.58;;
60844;SDS011;47984;51.250;6.712;2022-07-29T11:58:28;4.55;;;2.53;;
60844;SDS011;47984;51.250;6.712;2022-07-29T12:00:56;3.03;;;2.20;;
60844;SDS011;47984;51.250;6.712;2022-07-29T12:03:30;3.35;;;2.50;;
60844;SDS011;47984;51.250;6.712;2022-07-29T12:06:02;3.03;;;1.83;;
60844;SDS011;47984;51.250;6.712;2022-07-29T12:08:42;3.53;;;1.80;;
60844;SDS011;47984;51.250;6.712;2022-07-29T12:11:16;4.63;;;2.83;;
60844;SDS011;47984;51.250;6.712;2022-07-29T12:13:49;3.95;;;2.70;;
60844;SDS011;47984;51.250;6.712;2022-07-29T12:16:21;3.22;;;2.13;;
60844;SDS011;47984;51.250;6.712;2022-07-29T12:19:04;5.70;;;2.90;;
60844;SDS011;47984;51.250;6.712;2022-07-29T12:21:44;5.95;;;3.00;;
60844;SDS011;47984;51.250;6.712;2022-07-29T12:24:22;4.30;;;2.80;;
60844;SDS011;47984;51.250;6.712;2022-07-29T12:26:56;8.93;;;2.95;;
60844;SDS011;47984;51.250;6.712;2022-07-29T12:29:25;8.15;;;3.67;;
60844;SDS011;47984;51.250;6.712;2022-07-29T12:32:01;4.90;;;2.40;;
60844;SDS011;47984;51.250;6.712;2022-07-29T12:34:40;4.68;;;2.65;;
60844;SDS011;47984;51.250;6.712;2022-07-29T12:37:08;7.82;;;2.67;;
60844;SDS011;47984;51.250;6.712;2022-07-29T12:39:36;4.38;;;2.63;;
60844;SDS011;47984;51.250;6.712;2022-07-29T12:42:11;4.40;;;2.35;;
60844;SDS011;47984;51.250;6.712;2022-07-29T12:44:47;3.00;;;1.75;;
60844;SDS011;47984;51.250;6.712;2022-07-29T12:47:17;4.13;;;2.53;;
60844;SDS011;47984;51.250;6.712;2022-07-29T12:49:46;4.85;;;2.10;;
60844;SDS011;47984;51.250;6.712;2022-07-29T12:54:56;4.80;;;2.03;;
60844;SDS011;47984;51.250;6.712;2022-07-29T12:57:24;3.25;;;1.95;;
60844;SDS011;47984;51.250;6.712;2022-07-29T13:02:30;2.53;;;1.50;;
60844;SDS011;47984;51.250;6.712;2022-07-29T13:04:58;2.92;;;1.80;;
60844;SDS011;47984;51.250;6.712;2022-07-29T13:07:28;2.47;;;1.58;;
60844;SDS011;47984;51.250;6.712;2022-07-29T13:10:19;4.72;;;1.70;;
60844;SDS011;47984;51.250;6.712;2022-07-29T13:13:02;4.47;;;1.58;;
60844;SDS011;47984;51.250;6.712;2022-07-29T13:15:35;4.53;;;2.05;;
60844;SDS011;47984;51.250;6.712;2022-07-29T13:18:04;2.67;;;2.10;;
60844;SDS011;47984;51.250;6.712;2022-07-29T13:20:53;4.47;;;1.67;;
60844;SDS011;47984;51.250;6.712;2022-07-29T13:23:20;3.13;;;1.63;;
60844;SDS011;47984;51.250;6.712;2022-07-29T13:25:48;2.17;;;1.98;;
60844;SDS011;47984;51.250;6.712;2022-07-29T13:28:15;2.63;;;1.67;;
60844;SDS011;47984;51.250;6.712;2022-07-29T13:30:43;5.63;;;1.90;;
60844;SDS011;47984;51.250;6.712;2022-07-29T13:33:11;3.97;;;1.88;;
60844;SDS011;47984;51.250;6.712;2022-07-29T13:35:38;1.73;;;1.20;;
60844;SDS011;47984;51.250;6.712;2022-07-29T13:38:05;6.47;;;1.63;;
60844;SDS011;47984;51.250;6.712;2022-07-29T13:40:36;2.30;;;1.48;;
60844;SDS011;47984;51.250;6.712;2022-07-29T13:43:03;3.75;;;1.75;;
60844;SDS011;47984;51.250;6.712;2022-07-29T13:45:30;3.45;;;1.55;;
60844;SDS011;47984;51.250;6.712;2022-07-29T13:47:58;3.08;;;1.48;;
60844;SDS011;47984;51.250;6.712;2022-07-29T13:50:25;4.22;;;2.00;;
60844;SDS011;47984;51.250;6.712;2022-07-29T13:52:52;4.88;;;1.75;;
60844;SDS011;47984;51.250;6.712;2022-07-29T13:55:20;2.70;;;1.63;;
60844;SDS011;47984;51.250;6.712;2022-07-29T13:57:47;1.85;;;1.20;;
60844;SDS011;47984;51.250;6.712;2022-07-29T14:00:14;1.85;;;1.27;;
60844;SDS011;47984;51.250;6.712;2022-07-29T14:02:42;2.47;;;1.17;;
60844;SDS011;47984;51.250;6.712;2022-07-29T14:05:10;1.55;;;1.33;;
60844;SDS011;47984;51.250;6.712;2022-07-29T14:07:40;1.95;;;1.40;;
60844;SDS011;47984;51.250;6.712;2022-07-29T14:10:07;2.03;;;1.20;;
60844;SDS011;47984;51.250;6.712;2022-07-29T14:12:35;4.03;;;1.10;;
60844;SDS011;47984;51.250;6.712;2022-07-29T14:15:03;2.42;;;1.40;;
60844;SDS011;47984;51.250;6.712;2022-07-29T14:17:31;4.15;;;1.75;;
60844;SDS011;47984;51.250;6.712;2022-07-29T14:19:58;3.00;;;1.20;;
60844;SDS011;47984;51.250;6.712;2022-07-29T14:22:25;1.63;;;0.90;;
60844;SDS011;47984;51.250;6.712;2022-07-29T14:24:52;4.43;;;1.33;;
60844;SDS011;47984;51.250;6.712;2022-07-29T14:27:20;2.97;;;1.60;;
60844;SDS011;47984;51.250;6.712;2022-07-29T14:30:05;6.40;;;2.20;;
60844;SDS011;47984;51.250;6.712;2022-07-29T14:32:33;1.45;;;1.23;;
60844;SDS011;47984;51.250;6.712;2022-07-29T14:35:00;4.07;;;2.15;;
60844;SDS011;47984;51.250;6.712;2022-07-29T14:37:27;1.50;;;1.40;;
60844;SDS011;47984;51.250;6.712;2022-07-29T14:40:06;4.53;;;1.80;;
60844;SDS011;47984;51.250;6.712;2022-07-29T14:42:35;1.35;;;0.95;;
60844;SDS011;47984;51.250;6.712;2022-07-29T14:45:05;1.33;;;1.02;;
60844;SDS011;47984;51.250;6.712;2022-07-29T14:47:34;6.75;;;1.60;;
60844;SDS011;47984;51.250;6.712;2022-07-29T14:50:02;4.75;;;1.25;;
60844;SDS011;47984;51.250;6.712;2022-07-29T14:52:31;2.67;;;1.30;;
60844;SDS011;47984;51.250;6.712;2022-07-29T14:54:58;1.88;;;1.42;;
60844;SDS011;47984;51.250;6.712;2022-07-29T14:57:26;1.52;;;1.10;;
60844;SDS011;47984;51.250;6.712;2022-07-29T14:59:53;1.85;;;1.20;;
60844;SDS011;47984;51.250;6.712;2022-07-29T15:02:20;1.40;;;1.15;;
60844;SDS011;47984;51.250;6.712;2022-07-29T15:05:01;1.45;;;1.00;;
60844;SDS011;47984;51.250;6.712;2022-07-29T15:07:28;3.17;;;1.25;;
60844;SDS011;47984;51.250;6.712;2022-07-29T15:09:55;0.85;;;0.85;;
60844;SDS011;47984;51.250;6.712;2022-07-29T15:12:26;1.35;;;1.25;;
60844;SDS011;47984;51.250;6.712;2022-07-29T15:14:54;2.65;;;1.10;;
60844;SDS011;47984;51.250;6.712;2022-07-29T15:17:21;3.33;;;1.15;;
60844;SDS011;47984;51.250;6.712;2022-07-29T15:19:48;2.17;;;1.10;;
60844;SDS011;47984;51.250;6.712;2022-07-29T15:22:16;3.53;;;1.27;;
60844;SDS011;47984;51.250;6.712;2022-07-29T15:24:44;1.67;;;1.17;;
60844;SDS011;47984;51.250;6.712;2022-07-29T15:27:11;2.88;;;1.80;;
60844;SDS011;47984;51.250;6.712;2022-07-29T15:29:40;3.58;;;2.08;;
60844;SDS011;47984;51.250;6.712;2022-07-29T15:32:09;1.73;;;1.55;;
60844;SDS011;47984;51.250;6.712;2022-07-29T15:34:37;4.55;;;4.10;;
60844;SDS011;47984;51.250;6.712;2022-07-29T15:37:05;3.83;;;2.28;;
60844;SDS011;47984;51.250;6.712;2022-07-29T15:39:32;1.20;;;1.13;;
60844;SDS011;47984;51.250;6.712;2022-07-29T15:42:00;2.13;;;1.77;;
60844;SDS011;47984;51.250;6.712;2022-07-29T15:44:28;3.92;;;1.88;;
60844;SDS011;47984;51.250;6.712;2022-07-29T15:46:56;1.50;;;1.40;;
60844;SDS011;47984;51.250;6.712;2022-07-29T15:49:29;2.00;;;1.30;;
60844;SDS011;47984;51.250;6.712;2022-07-29T15:52:18;1.65;;;1.30;;
60844;SDS011;47984;51.250;6.712;2022-07-29T15:54:52;3.28;;;1.45;;
60844;SDS011;47984;51.250;6.712;2022-07-29T15:57:21;2.13;;;1.00;;
60844;SDS011;47984;51.250;6.712;2022-07-29T15:59:50;2.47;;;1.40;;
60844;SDS011;47984;51.250;6.712;2022-07-29T16:02:17;2.33;;;2.08;;
60844;SDS011;47984;51.250;6.712;2022-07-29T16:04:45;3.25;;;1.83;;
60844;SDS011;47984;51.250;6.712;2022-07-29T16:07:12;2.38;;;1.70;;
60844;SDS011;47984;51.250;6.712;2022-07-29T16:09:51;1.67;;;1.20;;